Airfield :
LOGIN :

Register | Disclaimer

   EN    FR    IT 

 










Legend :    VFR   Marginal VFR   IFR   Intensive IFR   Very Intensive IFR
Visi :
Ceiling :
>= 8 km
>= 3000ft
5 to 8 km
1000 to 3000 ft
1500m to 5 km
500 to 1000 ft
800 to 1500m
200 to 500 ft
< 800m
< 200 ft
Symbols :   Thunderstorms  Fog  Heavy snow  Heavy precipitations  Wind > 20 kt
SIGMETs :     Misc.  Thunderstorms  Icing  Turbulence  Mountain Waves  Volcanic Ashes






- Airport Elevation : 32 ft
- IATA code : LKZ


EGUL - RAF Lakenheath

CURRENT METAR :
  • 210456Z 36003KT 5000 BR FEW180 02/01 A3010 RMK AO2A VIS NW 2 SLP197 T00150014 $

EXPIRED METARs :
  • 210356Z 00000KT 9000 BR FEW030 02/02 A3009 RMK AO2A SLP193 T00220021 $
  • 210256Z 04004KT 9999 CLR 02/02 A3009 RMK AO2A DZB18E27 SLP193 P0000 60000 T00190018 52005 $
  • 210227Z AUTO 05003KT 9999 FEW200 02/02 A3008 RMK AO2 DZB18E27 SLP190 $
  • 210218Z AUTO 05003KT 9999 DZ BR SCT200 02/02 A3008 RMK AO2 DZB18 SLP190 $

TAF TAF EGUL
Valid from the 21 at 04:00 until the 22 at 10:00 UTC


210400Z 2104/2210 03006KT 8000 BR FEW030 QNH3005INS
BECMG 2108/2109 05012G18KT 9999 NSW BKN020 QNH3000INS
BECMG 2115/2116 04010G15KT 9999 FEW030 QNH3002INS
BECMG 2120/2121 03006KT 9999 FEW020 QNH3006INS TX13/2113Z TN01/2203Z



MET'MAP, your aeronautical weather chart ! - Copyright ORBIFLY December 2007 - Disclaimer

ORBIFLY MET'MAP TEAM :

Programming & Development : Alexandra Zaïnal
Concept & original design : Baudouin d'Aumeries
Assistance for programming : Marc-Olivier Méhu
Technical & hardware support : Manuel Goepfert

Contact : metmap@orbifly.com




SOURCES & CREDITS :

   NOAA